KGRK/GRK METAR and TAF weather

Enter ICAO airport designator
Station Type Date Time Source
KGRK METAR 2020/11/27 02:58 UTC NOAA

KGRK 270258Z AUTO 15004KT 8SM CLR 16/15 A2995 RMK AO2 SLP140 T01560145 51006


Station Type Date Time Source
KGRK Decoded METAR 2020/11/27 02:58 UTC NOAA

Fort Hood, Robert Gray AAF Ft Hood, TX, United States (KGRK) 31-04N 097-49W
Nov 26, 2020 - 09:58 PM EST / 2020.11.27 0258 UTC
Wind: from the SSE (150 degrees) at 5 MPH (4 KT):0
Visibility: 8 mile(s):0
Sky conditions: clear
Temperature: 60.1 F (15.6 C)
Dew Point: 58.1 F (14.5 C)
Relative Humidity: 93%
Pressure (altimeter): 29.95 in. Hg (1014 hPa)
Pressure tendency: 0.02 inches (0.6 hPa) higher than three hours ago
ob: KGRK 270258Z AUTO 15004KT 8SM CLR 16/15 A2995 RMK AO2 SLP140 T01560145 51006
cycle: 3

Station Type Date Time Source
KGRK TAF 2020/11/27 00:06 UTC NOAA

TAF KGRK 270000Z 2700/2806 14009KT 9999 FEW025 QNH2989INS
BECMG 2704/2705 VRB06KT 8000 BR BKN010 QNH2990INS
BECMG 2707/2708 VRB06KT 4800 BR OVC007 QNH2991INS
BECMG 2711/2712 35006KT 8000 -SHRA OVC007 QNH3000INS
BECMG 2716/2717 02010G20KT 8000 -SHRA OVC015 QNH3006INS
BECMG 2721/2722 03012KT 8000 -SHRA OVC020 QNH3007INS
TEMPO 2722/2802 02010G15KT 4800 -TSRA OVC020CB TX24/2700Z TN14/2800Z

Example: see airport list